Time;durP1;ratioP1;P1;durP2;ratioP2;P2;SDS_P1;SDS_P2;PMS_P1;PMS_P2;Temp;Humidity;BMP_temperature;BMP_pressure;BME280_temperature;BME280_humidity;BME280_pressure;Samples;Min_cycle;Max_cycle;Signal;HPM_P1;HPM_P2
2022/05/20 00:00:00;;;;;;;2.1;1.9;;;;;;;16.2;100.0;101940;;;;
2022/05/20 00:01:00;;;;;;;2.1;1.9;;;;;;;16.2;100.0;101940;;;;
2022/05/20 00:02:00;;;;;;;2.1;1.9;;;;;;;16.2;100.0;101940;;;;
2022/05/20 00:03:00;;;;;;;2.1;1.9;;;;;;;16.1;100.0;101940;;;;
2022/05/20 00:04:00;;;;;;;2.1;1.9;;;;;;;16.1;100.0;101940;;;;
2022/05/20 00:05:00;;;;;;;2.1;1.9;;;;;;;16.1;100.0;101930;;;;
2022/05/20 00:06:00;;;;;;;2.1;1.9;;;;;;;16.1;100.0;101930;;;;
2022/05/20 00:07:00;;;;;;;2.1;1.9;;;;;;;16.1;100.0;101930;;;;
2022/05/20 00:08:00;;;;;;;2.1;1.9;;;;;;;16.1;100.0;101930;;;;
2022/05/20 00:09:00;;;;;;;2.1;1.9;;;;;;;16.0;100.0;101930;;;;
2022/05/20 00:10:00;;;;;;;2.1;1.9;;;;;;;16.0;100.0;101930;;;;
2022/05/20 00:11:00;;;;;;;2.1;1.9;;;;;;;16.0;100.0;101930;;;;
2022/05/20 00:12:00;;;;;;;2.1;1.9;;;;;;;16.0;100.0;101930;;;;
2022/05/20 00:13:00;;;;;;;2.1;1.9;;;;;;;16.0;100.0;101930;;;;
2022/05/20 00:14:01;;;;;;;2.1;1.9;;;;;;;16.0;100.0;101930;;;;
2022/05/20 00:15:00;;;;;;;2.1;1.9;;;;;;;15.9;100.0;101930;;;;
2022/05/20 00:16:00;;;;;;;2.1;1.9;;;;;;;15.9;100.0;101930;;;;
2022/05/20 00:17:04;;;;;;;2.1;1.9;;;;;;;15.9;100.0;101930;;;;
2022/05/20 00:18:00;;;;;;;2.1;1.9;;;;;;;15.9;100.0;101930;;;;
2022/05/20 00:19:00;;;;;;;0.8;0.8;;;;;;;15.9;100.0;101930;;;;
2022/05/20 00:20:01;;;;;;;0.8;0.8;;;;;;;15.9;100.0;101930;;;;
2022/05/20 00:21:00;;;;;;;0.8;0.8;;;;;;;15.9;100.0;101930;;;;
2022/05/20 00:22:00;;;;;;;0.8;0.8;;;;;;;15.9;100.0;101930;;;;
2022/05/20 00:23:00;;;;;;;0.8;0.8;;;;;;;15.9;100.0;101930;;;;
2022/05/20 00:24:00;;;;;;;0.8;0.8;;;;;;;15.9;100.0;101930;;;;
2022/05/20 00:26:00;;;;;;;0.8;0.8;;;;;;;15.8;100.0;101940;;;;
2022/05/20 00:27:00;;;;;;;0.8;0.8;;;;;;;15.8;100.0;101930;;;;
2022/05/20 00:28:00;;;;;;;0.8;0.8;;;;;;;15.8;100.0;101930;;;;
2022/05/20 00:29:00;;;;;;;0.8;0.8;;;;;;;15.8;100.0;101930;;;;
2022/05/20 00:30:00;;;;;;;0.8;0.8;;;;;;;15.8;100.0;101930;;;;
2022/05/20 00:31:04;;;;;;;0.8;0.8;;;;;;;15.8;100.0;101930;;;;
2022/05/20 00:32:00;;;;;;;0.8;0.8;;;;;;;15.8;100.0;101930;;;;
2022/05/20 00:33:00;;;;;;;0.8;0.8;;;;;;;15.8;100.0;101930;;;;
2022/05/20 00:34:00;;;;;;;0.8;0.8;;;;;;;15.8;100.0;101930;;;;
2022/05/20 00:35:00;;;;;;;0.8;0.8;;;;;;;15.7;100.0;101930;;;;
2022/05/20 00:36:00;;;;;;;0.8;0.8;;;;;;;15.7;100.0;101930;;;;
2022/05/20 00:37:00;;;;;;;0.8;0.8;;;;;;;15.7;100.0;101930;;;;
2022/05/20 00:38:00;;;;;;;0.8;0.8;;;;;;;15.7;100.0;101930;;;;
2022/05/20 00:39:00;;;;;;;0.8;0.8;;;;;;;15.8;100.0;101930;;;;
2022/05/20 00:40:00;;;;;;;0.8;0.8;;;;;;;15.8;100.0;101930;;;;
2022/05/20 00:41:00;;;;;;;0.8;0.8;;;;;;;15.7;100.0;101930;;;;
2022/05/20 00:42:08;;;;;;;0.8;0.8;;;;;;;15.7;100.0;101930;;;;
2022/05/20 00:43:07;;;;;;;0.8;0.8;;;;;;;15.6;100.0;101930;;;;
2022/05/20 00:44:00;;;;;;;0.8;0.8;;;;;;;15.6;100.0;101930;;;;
2022/05/20 00:45:00;;;;;;;0.8;0.8;;;;;;;15.6;100.0;101930;;;;
2022/05/20 00:46:02;;;;;;;0.8;0.8;;;;;;;15.6;100.0;101930;;;;
2022/05/20 00:47:00;;;;;;;0.8;0.8;;;;;;;15.6;100.0;101930;;;;
2022/05/20 00:48:00;;;;;;;0.8;0.8;;;;;;;15.6;100.0;101930;;;;
2022/05/20 00:49:02;;;;;;;0.8;0.8;;;;;;;15.5;100.0;101930;;;;
2022/05/20 00:50:02;;;;;;;0.8;0.8;;;;;;;15.5;100.0;101930;;;;
2022/05/20 00:51:06;;;;;;;0.8;0.8;;;;;;;15.5;100.0;101930;;;;
2022/05/20 00:52:01;;;;;;;0.8;0.8;;;;;;;15.5;100.0;101930;;;;
2022/05/20 00:53:00;;;;;;;0.8;0.8;;;;;;;15.5;100.0;101930;;;;
2022/05/20 00:54:05;;;;;;;0.8;0.8;;;;;;;15.5;100.0;101930;;;;
2022/05/20 00:55:01;;;;;;;0.8;0.8;;;;;;;15.4;100.0;101930;;;;
2022/05/20 00:56:01;;;;;;;0.8;0.8;;;;;;;15.4;100.0;101930;;;;
2022/05/20 00:57:04;;;;;;;0.8;0.8;;;;;;;15.4;100.0;101930;;;;
2022/05/20 00:58:04;;;;;;;0.8;0.8;;;;;;;15.4;100.0;101930;;;;
2022/05/20 00:59:00;;;;;;;0.8;0.8;;;;;;;15.5;100.0;101930;;;;
2022/05/20 01:00:03;;;;;;;0.8;0.8;;;;;;;15.5;100.0;101930;;;;
2022/05/20 01:01:02;;;;;;;0.8;0.8;;;;;;;15.5;100.0;101930;;;;
2022/05/20 01:02:03;;;;;;;0.8;0.8;;;;;;;15.5;100.0;101930;;;;
2022/05/20 01:03:01;;;;;;;0.8;0.8;;;;;;;15.4;100.0;101930;;;;
2022/05/20 01:04:01;;;;;;;0.8;0.8;;;;;;;15.4;100.0;101930;;;;
2022/05/20 01:05:03;;;;;;;0.8;0.8;;;;;;;15.4;100.0;101930;;;;
2022/05/20 01:06:00;;;;;;;0.8;0.8;;;;;;;15.4;100.0;101930;;;;
2022/05/20 01:07:00;;;;;;;0.8;0.8;;;;;;;15.4;100.0;101930;;;;
2022/05/20 01:08:00;;;;;;;0.8;0.8;;;;;;;15.4;100.0;101930;;;;
2022/05/20 01:09:00;;;;;;;0.8;0.8;;;;;;;15.4;100.0;101930;;;;
2022/05/20 01:10:00;;;;;;;0.8;0.8;;;;;;;15.4;100.0;101930;;;;
2022/05/20 01:11:00;;;;;;;0.8;0.8;;;;;;;15.3;100.0;101930;;;;
2022/05/20 01:12:00;;;;;;;0.8;0.8;;;;;;;15.3;100.0;101930;;;;
2022/05/20 01:13:00;;;;;;;0.8;0.8;;;;;;;15.1;100.0;101920;;;;
2022/05/20 01:14:00;;;;;;;0.8;0.8;;;;;;;15.1;100.0;101920;;;;
2022/05/20 01:15:00;;;;;;;0.8;0.8;;;;;;;15.1;100.0;101920;;;;
2022/05/20 01:16:05;;;;;;;0.8;0.8;;;;;;;15.1;100.0;101920;;;;
2022/05/20 01:17:00;;;;;;;0.8;0.8;;;;;;;15.2;100.0;101920;;;;
2022/05/20 01:18:00;;;;;;;0.8;0.8;;;;;;;15.2;100.0;101920;;;;
2022/05/20 01:19:01;;;;;;;0.5;0.5;;;;;;;15.3;100.0;101920;;;;
2022/05/20 01:20:00;;;;;;;0.5;0.5;;;;;;;15.3;100.0;101920;;;;
2022/05/20 01:21:00;;;;;;;0.5;0.5;;;;;;;15.2;100.0;101920;;;;
2022/05/20 01:22:00;;;;;;;0.5;0.5;;;;;;;15.2;100.0;101920;;;;
2022/05/20 01:23:01;;;;;;;0.5;0.5;;;;;;;15.2;100.0;101920;;;;
2022/05/20 01:24:01;;;;;;;0.5;0.5;;;;;;;15.2;100.0;101920;;;;
2022/05/20 01:25:01;;;;;;;0.5;0.5;;;;;;;15.2;100.0;101920;;;;
2022/05/20 01:26:00;;;;;;;0.5;0.5;;;;;;;15.2;100.0;101920;;;;
2022/05/20 01:27:00;;;;;;;0.5;0.5;;;;;;;15.2;100.0;101920;;;;
2022/05/20 01:28:00;;;;;;;0.5;0.5;;;;;;;15.2;100.0;101920;;;;
2022/05/20 01:29:00;;;;;;;0.5;0.5;;;;;;;15.1;100.0;101920;;;;
2022/05/20 01:30:00;;;;;;;0.5;0.5;;;;;;;15.1;100.0;101920;;;;
2022/05/20 01:31:03;;;;;;;0.5;0.5;;;;;;;15.2;100.0;101920;;;;
2022/05/20 01:32:00;;;;;;;0.5;0.5;;;;;;;15.2;100.0;101920;;;;
2022/05/20 01:33:03;;;;;;;0.5;0.5;;;;;;;15.1;100.0;101920;;;;
2022/05/20 01:34:00;;;;;;;0.5;0.5;;;;;;;15.1;100.0;101920;;;;
2022/05/20 01:35:01;;;;;;;0.5;0.5;;;;;;;15.1;100.0;101920;;;;
2022/05/20 01:36:01;;;;;;;0.5;0.5;;;;;;;15.1;100.0;101920;;;;
2022/05/20 01:37:00;;;;;;;0.5;0.5;;;;;;;15.1;100.0;101910;;;;
2022/05/20 01:38:00;;;;;;;0.5;0.5;;;;;;;15.1;100.0;101910;;;;
2022/05/20 01:39:00;;;;;;;0.8;0.8;;;;;;;15.1;100.0;101910;;;;
2022/05/20 01:40:00;;;;;;;0.8;0.8;;;;;;;15.1;100.0;101910;;;;
2022/05/20 01:41:01;;;;;;;0.8;0.8;;;;;;;15.0;100.0;101910;;;;
2022/05/20 01:42:04;;;;;;;0.8;0.8;;;;;;;15.0;100.0;101910;;;;
2022/05/20 01:43:03;;;;;;;0.8;0.8;;;;;;;15.0;100.0;101910;;;;
2022/05/20 01:44:01;;;;;;;0.8;0.8;;;;;;;15.0;100.0;101910;;;;
2022/05/20 01:45:07;;;;;;;0.8;0.8;;;;;;;15.0;100.0;101910;;;;
2022/05/20 01:46:10;;;;;;;0.8;0.8;;;;;;;15.0;100.0;101910;;;;
2022/05/20 01:47:04;;;;;;;0.8;0.8;;;;;;;14.9;100.0;101910;;;;
2022/05/20 01:48:10;;;;;;;0.8;0.8;;;;;;;14.9;100.0;101910;;;;
2022/05/20 01:49:07;;;;;;;0.8;0.8;;;;;;;14.9;100.0;101900;;;;
2022/05/20 01:50:10;;;;;;;0.8;0.8;;;;;;;14.9;100.0;101900;;;;
2022/05/20 01:51:02;;;;;;;0.8;0.8;;;;;;;14.9;100.0;101900;;;;
2022/05/20 01:52:10;;;;;;;0.8;0.8;;;;;;;14.9;100.0;101900;;;;
2022/05/20 01:53:05;;;;;;;0.8;0.8;;;;;;;14.9;100.0;101900;;;;
2022/05/20 01:54:05;;;;;;;0.8;0.8;;;;;;;14.9;100.0;101900;;;;
2022/05/20 01:55:10;;;;;;;0.8;0.8;;;;;;;14.9;100.0;101900;;;;
2022/05/20 01:56:07;;;;;;;0.8;0.8;;;;;;;14.9;100.0;101900;;;;
2022/05/20 01:57:10;;;;;;;0.8;0.8;;;;;;;14.9;100.0;101890;;;;
2022/05/20 01:58:03;;;;;;;0.8;0.8;;;;;;;14.9;100.0;101890;;;;
2022/05/20 01:59:03;;;;;;;1.0;1.0;;;;;;;14.9;100.0;101890;;;;
2022/05/20 02:00:05;;;;;;;1.0;1.0;;;;;;;14.9;100.0;101890;;;;
2022/05/20 02:01:02;;;;;;;1.0;1.0;;;;;;;14.9;100.0;101890;;;;
2022/05/20 02:02:06;;;;;;;1.0;1.0;;;;;;;14.9;100.0;101890;;;;
2022/05/20 02:03:04;;;;;;;1.0;1.0;;;;;;;14.9;100.0;101890;;;;
2022/05/20 02:04:03;;;;;;;1.0;1.0;;;;;;;14.9;100.0;101890;;;;
2022/05/20 02:05:05;;;;;;;1.0;1.0;;;;;;;14.9;100.0;101890;;;;
2022/05/20 02:06:05;;;;;;;1.0;1.0;;;;;;;14.9;100.0;101890;;;;
2022/05/20 02:07:03;;;;;;;1.0;1.0;;;;;;;14.8;100.0;101890;;;;
2022/05/20 02:08:10;;;;;;;1.0;1.0;;;;;;;14.8;100.0;101890;;;;
2022/05/20 02:09:01;;;;;;;1.0;1.0;;;;;;;14.8;100.0;101890;;;;
2022/05/20 02:10:03;;;;;;;1.0;1.0;;;;;;;14.8;100.0;101890;;;;
2022/05/20 02:11:06;;;;;;;1.0;1.0;;;;;;;14.8;100.0;101890;;;;
2022/05/20 02:12:00;;;;;;;1.0;1.0;;;;;;;14.8;100.0;101890;;;;
2022/05/20 02:13:01;;;;;;;1.0;1.0;;;;;;;14.8;100.0;101890;;;;
2022/05/20 02:14:00;;;;;;;1.0;1.0;;;;;;;14.8;100.0;101890;;;;
2022/05/20 02:15:04;;;;;;;1.0;1.0;;;;;;;14.8;100.0;101900;;;;
2022/05/20 02:16:04;;;;;;;1.0;1.0;;;;;;;14.8;100.0;101900;;;;
2022/05/20 02:17:09;;;;;;;1.0;1.0;;;;;;;14.7;100.0;101900;;;;
2022/05/20 02:18:02;;;;;;;1.0;1.0;;;;;;;14.7;100.0;101900;;;;
2022/05/20 02:19:05;;;;;;;0.8;0.8;;;;;;;14.8;100.0;101890;;;;
2022/05/20 02:20:00;;;;;;;0.8;0.8;;;;;;;14.8;100.0;101890;;;;
2022/05/20 02:21:03;;;;;;;0.8;0.8;;;;;;;14.8;100.0;101890;;;;
2022/05/20 02:22:02;;;;;;;0.8;0.8;;;;;;;14.8;100.0;101890;;;;
2022/05/20 02:23:03;;;;;;;0.8;0.8;;;;;;;14.7;100.0;101890;;;;
2022/05/20 02:24:03;;;;;;;0.8;0.8;;;;;;;14.7;100.0;101890;;;;
2022/05/20 02:25:02;;;;;;;0.8;0.8;;;;;;;14.7;100.0;101890;;;;
2022/05/20 02:26:03;;;;;;;0.8;0.8;;;;;;;14.7;100.0;101890;;;;
2022/05/20 02:27:02;;;;;;;0.8;0.8;;;;;;;14.7;100.0;101890;;;;
2022/05/20 02:28:04;;;;;;;0.8;0.8;;;;;;;14.7;100.0;101890;;;;
2022/05/20 02:29:01;;;;;;;0.8;0.8;;;;;;;14.7;100.0;101880;;;;
2022/05/20 02:30:01;;;;;;;0.8;0.8;;;;;;;14.7;100.0;101880;;;;
2022/05/20 02:31:02;;;;;;;0.8;0.8;;;;;;;14.7;100.0;101880;;;;
2022/05/20 02:32:10;;;;;;;0.8;0.8;;;;;;;14.7;100.0;101880;;;;
2022/05/20 02:33:05;;;;;;;0.8;0.8;;;;;;;14.8;100.0;101880;;;;
2022/05/20 02:34:00;;;;;;;0.8;0.8;;;;;;;14.8;100.0;101880;;;;
2022/05/20 02:35:00;;;;;;;0.8;0.8;;;;;;;14.7;100.0;101880;;;;
2022/05/20 02:36:02;;;;;;;0.8;0.8;;;;;;;14.7;100.0;101880;;;;
2022/05/20 02:37:01;;;;;;;0.8;0.8;;;;;;;14.6;100.0;101880;;;;
2022/05/20 02:38:04;;;;;;;0.8;0.8;;;;;;;14.6;100.0;101880;;;;
2022/05/20 02:39:02;;;;;;;2.3;1.2;;;;;;;14.7;100.0;101880;;;;
2022/05/20 02:40:01;;;;;;;2.3;1.2;;;;;;;14.7;100.0;101880;;;;
2022/05/20 02:41:00;;;;;;;2.3;1.2;;;;;;;14.8;100.0;101880;;;;
2022/05/20 02:42:00;;;;;;;2.3;1.2;;;;;;;14.8;100.0;101880;;;;
2022/05/20 02:43:00;;;;;;;2.3;1.2;;;;;;;14.6;100.0;101880;;;;
2022/05/20 02:44:00;;;;;;;2.3;1.2;;;;;;;14.6;100.0;101880;;;;
2022/05/20 02:45:00;;;;;;;2.3;1.2;;;;;;;14.7;100.0;101880;;;;
2022/05/20 02:46:01;;;;;;;2.3;1.2;;;;;;;14.7;100.0;101880;;;;
2022/05/20 02:47:00;;;;;;;2.3;1.2;;;;;;;14.8;100.0;101880;;;;
2022/05/20 02:48:00;;;;;;;2.3;1.2;;;;;;;14.8;100.0;101880;;;;
2022/05/20 02:49:00;;;;;;;2.3;1.2;;;;;;;14.8;100.0;101880;;;;
2022/05/20 02:50:00;;;;;;;2.3;1.2;;;;;;;14.8;100.0;101880;;;;
2022/05/20 02:51:00;;;;;;;2.3;1.2;;;;;;;14.8;100.0;101880;;;;
2022/05/20 02:52:00;;;;;;;2.3;1.2;;;;;;;14.8;100.0;101880;;;;
2022/05/20 02:53:00;;;;;;;2.3;1.2;;;;;;;14.8;100.0;101880;;;;
2022/05/20 02:54:00;;;;;;;2.3;1.2;;;;;;;14.8;100.0;101880;;;;
2022/05/20 02:55:00;;;;;;;2.3;1.2;;;;;;;14.8;100.0;101870;;;;
2022/05/20 02:56:00;;;;;;;2.3;1.2;;;;;;;14.8;100.0;101870;;;;
2022/05/20 02:57:00;;;;;;;2.3;1.2;;;;;;;14.8;100.0;101870;;;;
2022/05/20 02:58:00;;;;;;;2.3;1.2;;;;;;;14.8;100.0;101870;;;;
2022/05/20 03:05:00;;;;;;;1.4;1.4;;;;;;;14.7;100.0;101880;;;;
2022/05/20 03:06:00;;;;;;;1.4;1.4;;;;;;;14.7;100.0;101880;;;;
2022/05/20 03:07:00;;;;;;;1.4;1.4;;;;;;;14.7;100.0;101890;;;;
2022/05/20 03:08:00;;;;;;;1.4;1.4;;;;;;;14.7;100.0;101890;;;;
2022/05/20 03:09:00;;;;;;;1.4;1.4;;;;;;;14.5;100.0;101890;;;;
2022/05/20 03:10:00;;;;;;;1.4;1.4;;;;;;;14.5;100.0;101890;;;;
2022/05/20 03:11:00;;;;;;;1.4;1.4;;;;;;;14.6;100.0;101890;;;;
2022/05/20 03:12:00;;;;;;;1.4;1.4;;;;;;;14.6;100.0;101890;;;;
2022/05/20 03:13:01;;;;;;;1.4;1.4;;;;;;;14.6;100.0;101880;;;;
2022/05/20 03:14:01;;;;;;;1.4;1.4;;;;;;;14.6;100.0;101880;;;;
2022/05/20 03:15:00;;;;;;;1.4;1.4;;;;;;;14.6;100.0;101870;;;;
2022/05/20 03:16:00;;;;;;;1.4;1.4;;;;;;;14.6;100.0;101870;;;;
2022/05/20 03:17:00;;;;;;;1.4;1.4;;;;;;;14.6;100.0;101870;;;;
2022/05/20 03:18:00;;;;;;;1.4;1.4;;;;;;;14.6;100.0;101870;;;;
2022/05/20 03:19:00;;;;;;;0.5;0.5;;;;;;;14.7;100.0;101870;;;;
2022/05/20 03:20:00;;;;;;;0.5;0.5;;;;;;;14.7;100.0;101870;;;;
2022/05/20 03:21:00;;;;;;;0.5;0.5;;;;;;;14.6;100.0;101870;;;;
2022/05/20 03:22:01;;;;;;;0.5;0.5;;;;;;;14.6;100.0;101870;;;;
2022/05/20 03:23:00;;;;;;;0.5;0.5;;;;;;;14.6;100.0;101870;;;;
2022/05/20 03:24:01;;;;;;;0.5;0.5;;;;;;;14.6;100.0;101870;;;;
2022/05/20 03:25:00;;;;;;;0.5;0.5;;;;;;;14.6;100.0;101870;;;;
2022/05/20 03:26:02;;;;;;;0.5;0.5;;;;;;;14.6;100.0;101870;;;;
2022/05/20 03:27:00;;;;;;;0.5;0.5;;;;;;;14.6;100.0;101870;;;;
2022/05/20 03:28:01;;;;;;;0.5;0.5;;;;;;;14.6;100.0;101870;;;;
2022/05/20 03:29:02;;;;;;;0.5;0.5;;;;;;;14.6;100.0;101870;;;;
2022/05/20 03:30:00;;;;;;;0.5;0.5;;;;;;;14.6;100.0;101870;;;;
2022/05/20 03:31:05;;;;;;;0.5;0.5;;;;;;;14.6;100.0;101860;;;;
2022/05/20 03:32:00;;;;;;;0.5;0.5;;;;;;;14.6;100.0;101860;;;;
2022/05/20 03:33:00;;;;;;;0.5;0.5;;;;;;;14.6;100.0;101860;;;;
2022/05/20 03:34:05;;;;;;;0.5;0.5;;;;;;;14.6;100.0;101860;;;;
2022/05/20 03:35:00;;;;;;;0.5;0.5;;;;;;;14.5;100.0;101860;;;;
2022/05/20 03:36:00;;;;;;;0.5;0.5;;;;;;;14.5;100.0;101860;;;;
2022/05/20 03:37:00;;;;;;;0.5;0.5;;;;;;;14.5;100.0;101860;;;;
2022/05/20 03:38:00;;;;;;;0.5;0.5;;;;;;;14.5;100.0;101860;;;;
2022/05/20 03:39:00;;;;;;;0.9;0.9;;;;;;;14.5;100.0;101860;;;;
2022/05/20 03:40:00;;;;;;;0.9;0.9;;;;;;;14.5;100.0;101860;;;;
2022/05/20 03:41:00;;;;;;;0.9;0.9;;;;;;;14.5;100.0;101870;;;;
2022/05/20 03:42:00;;;;;;;0.9;0.9;;;;;;;14.5;100.0;101870;;;;
2022/05/20 03:43:00;;;;;;;0.9;0.9;;;;;;;14.6;100.0;101870;;;;
2022/05/20 03:44:00;;;;;;;0.9;0.9;;;;;;;14.6;100.0;101870;;;;
2022/05/20 03:45:00;;;;;;;0.9;0.9;;;;;;;14.5;100.0;101870;;;;
2022/05/20 03:46:00;;;;;;;0.9;0.9;;;;;;;14.5;100.0;101870;;;;
2022/05/20 03:47:01;;;;;;;0.9;0.9;;;;;;;14.6;100.0;101880;;;;
2022/05/20 03:48:00;;;;;;;0.9;0.9;;;;;;;14.6;100.0;101880;;;;
2022/05/20 03:49:00;;;;;;;0.9;0.9;;;;;;;14.5;100.0;101880;;;;
2022/05/20 03:50:00;;;;;;;0.9;0.9;;;;;;;14.5;100.0;101880;;;;
2022/05/20 03:51:08;;;;;;;0.9;0.9;;;;;;;14.4;100.0;101880;;;;
2022/05/20 03:52:00;;;;;;;0.9;0.9;;;;;;;14.4;100.0;101880;;;;
2022/05/20 03:53:00;;;;;;;0.9;0.9;;;;;;;14.4;100.0;101880;;;;
2022/05/20 03:54:00;;;;;;;0.9;0.9;;;;;;;14.4;100.0;101880;;;;
2022/05/20 03:55:00;;;;;;;0.9;0.9;;;;;;;14.5;100.0;101880;;;;
2022/05/20 03:56:00;;;;;;;0.9;0.9;;;;;;;14.5;100.0;101880;;;;
2022/05/20 03:57:02;;;;;;;0.9;0.9;;;;;;;14.5;100.0;101880;;;;
2022/05/20 03:58:00;;;;;;;0.9;0.9;;;;;;;14.5;100.0;101880;;;;
2022/05/20 03:59:00;;;;;;;0.9;0.9;;;;;;;14.6;100.0;101880;;;;
2022/05/20 04:00:00;;;;;;;0.9;0.9;;;;;;;14.6;100.0;101880;;;;
2022/05/20 04:02:01;;;;;;;0.9;0.9;;;;;;;14.5;100.0;101880;;;;
2022/05/20 04:03:00;;;;;;;0.9;0.9;;;;;;;14.5;100.0;101870;;;;
2022/05/20 04:04:00;;;;;;;0.9;0.9;;;;;;;14.5;100.0;101870;;;;
2022/05/20 04:05:00;;;;;;;0.9;0.9;;;;;;;14.5;100.0;101880;;;;
2022/05/20 04:06:00;;;;;;;0.9;0.9;;;;;;;14.5;100.0;101880;;;;
2022/05/20 04:07:01;;;;;;;0.9;0.9;;;;;;;14.5;100.0;101880;;;;
2022/05/20 04:08:00;;;;;;;0.9;0.9;;;;;;;14.5;100.0;101880;;;;
2022/05/20 04:09:00;;;;;;;0.9;0.9;;;;;;;14.5;100.0;101880;;;;
2022/05/20 04:10:00;;;;;;;0.9;0.9;;;;;;;14.5;100.0;101880;;;;
2022/05/20 04:11:00;;;;;;;0.9;0.9;;;;;;;14.5;100.0;101870;;;;
2022/05/20 04:12:03;;;;;;;0.9;0.9;;;;;;;14.5;100.0;101870;;;;
2022/05/20 04:13:00;;;;;;;0.9;0.9;;;;;;;14.4;100.0;101860;;;;
2022/05/20 04:14:01;;;;;;;0.9;0.9;;;;;;;14.4;100.0;101860;;;;
2022/05/20 04:15:01;;;;;;;0.9;0.9;;;;;;;14.3;100.0;101860;;;;
2022/05/20 04:16:01;;;;;;;0.9;0.9;;;;;;;14.3;100.0;101860;;;;
2022/05/20 04:17:00;;;;;;;0.9;0.9;;;;;;;14.3;100.0;101850;;;;
2022/05/20 04:18:00;;;;;;;0.9;0.9;;;;;;;14.3;100.0;101850;;;;
2022/05/20 04:19:00;;;;;;;1.1;1.1;;;;;;;14.4;100.0;101840;;;;
2022/05/20 04:20:00;;;;;;;1.1;1.1;;;;;;;14.4;100.0;101840;;;;
2022/05/20 04:21:00;;;;;;;1.1;1.1;;;;;;;14.2;100.0;101840;;;;
2022/05/20 04:22:03;;;;;;;1.1;1.1;;;;;;;14.2;100.0;101840;;;;
2022/05/20 04:23:00;;;;;;;1.1;1.1;;;;;;;14.2;100.0;101830;;;;
2022/05/20 04:24:00;;;;;;;1.1;1.1;;;;;;;14.2;100.0;101830;;;;
2022/05/20 04:25:00;;;;;;;1.1;1.1;;;;;;;14.1;100.0;101830;;;;
2022/05/20 04:26:00;;;;;;;1.1;1.1;;;;;;;14.1;100.0;101830;;;;
2022/05/20 04:27:00;;;;;;;1.1;1.1;;;;;;;14.0;100.0;101840;;;;
2022/05/20 04:28:00;;;;;;;1.1;1.1;;;;;;;14.0;100.0;101840;;;;
2022/05/20 04:29:00;;;;;;;1.1;1.1;;;;;;;14.2;100.0;101840;;;;
2022/05/20 04:30:00;;;;;;;1.1;1.1;;;;;;;14.2;100.0;101840;;;;
2022/05/20 04:31:01;;;;;;;1.1;1.1;;;;;;;14.2;100.0;101830;;;;
2022/05/20 04:32:00;;;;;;;1.1;1.1;;;;;;;14.2;100.0;101830;;;;
2022/05/20 04:33:00;;;;;;;1.1;1.1;;;;;;;14.2;100.0;101830;;;;
2022/05/20 04:34:00;;;;;;;1.1;1.1;;;;;;;14.2;100.0;101830;;;;
2022/05/20 04:35:00;;;;;;;1.1;1.1;;;;;;;14.2;100.0;101830;;;;
2022/05/20 04:36:00;;;;;;;1.1;1.1;;;;;;;14.2;100.0;101830;;;;
2022/05/20 04:37:00;;;;;;;1.1;1.1;;;;;;;14.1;100.0;101830;;;;
2022/05/20 04:38:00;;;;;;;1.1;1.1;;;;;;;14.1;100.0;101830;;;;
2022/05/20 04:39:00;;;;;;;1.0;1.0;;;;;;;14.0;100.0;101830;;;;
2022/05/20 04:40:00;;;;;;;1.0;1.0;;;;;;;14.0;100.0;101830;;;;
2022/05/20 04:47:02;;;;;;;1.0;1.0;;;;;;;14.2;100.0;101840;;;;
2022/05/20 04:48:00;;;;;;;1.0;1.0;;;;;;;14.2;100.0;101840;;;;
2022/05/20 04:49:00;;;;;;;1.0;1.0;;;;;;;14.2;100.0;101840;;;;
2022/05/20 04:50:00;;;;;;;1.0;1.0;;;;;;;14.2;100.0;101840;;;;
2022/05/20 04:51:00;;;;;;;1.0;1.0;;;;;;;14.1;100.0;101840;;;;
2022/05/20 04:52:00;;;;;;;1.0;1.0;;;;;;;14.1;100.0;101840;;;;
2022/05/20 04:53:00;;;;;;;1.0;1.0;;;;;;;13.9;100.0;101840;;;;
2022/05/20 04:55:00;;;;;;;1.0;1.0;;;;;;;13.9;100.0;101840;;;;
2022/05/20 04:56:00;;;;;;;1.0;1.0;;;;;;;13.9;100.0;101840;;;;
2022/05/20 04:57:00;;;;;;;1.0;1.0;;;;;;;14.0;100.0;101840;;;;
2022/05/20 04:58:00;;;;;;;1.0;1.0;;;;;;;14.0;100.0;101840;;;;
2022/05/20 04:59:01;;;;;;;1.5;1.2;;;;;;;14.0;100.0;101840;;;;
2022/05/20 05:00:05;;;;;;;1.5;1.2;;;;;;;14.0;100.0;101840;;;;
2022/05/20 05:01:00;;;;;;;1.5;1.2;;;;;;;14.0;100.0;101840;;;;
2022/05/20 05:02:00;;;;;;;1.5;1.2;;;;;;;14.0;100.0;101840;;;;
2022/05/20 05:03:00;;;;;;;1.5;1.2;;;;;;;13.9;100.0;101840;;;;
2022/05/20 05:04:00;;;;;;;1.5;1.2;;;;;;;13.9;100.0;101840;;;;
2022/05/20 05:05:00;;;;;;;1.5;1.2;;;;;;;14.0;100.0;101850;;;;
2022/05/20 05:06:00;;;;;;;1.5;1.2;;;;;;;14.0;100.0;101850;;;;
2022/05/20 05:07:00;;;;;;;1.5;1.2;;;;;;;14.2;100.0;101850;;;;
2022/05/20 05:08:00;;;;;;;1.5;1.2;;;;;;;14.2;100.0;101850;;;;
2022/05/20 05:09:00;;;;;;;1.5;1.2;;;;;;;14.3;100.0;101860;;;;
2022/05/20 05:10:00;;;;;;;1.5;1.2;;;;;;;14.3;100.0;101860;;;;
2022/05/20 05:11:00;;;;;;;1.5;1.2;;;;;;;14.4;100.0;101870;;;;
2022/05/20 05:12:06;;;;;;;1.5;1.2;;;;;;;14.4;100.0;101870;;;;
2022/05/20 05:13:00;;;;;;;1.5;1.2;;;;;;;14.4;100.0;101870;;;;
2022/05/20 05:14:00;;;;;;;1.5;1.2;;;;;;;14.4;100.0;101870;;;;
2022/05/20 05:15:00;;;;;;;1.5;1.2;;;;;;;14.4;100.0;101870;;;;
2022/05/20 05:16:05;;;;;;;1.5;1.2;;;;;;;14.4;100.0;101870;;;;
2022/05/20 05:17:00;;;;;;;1.5;1.2;;;;;;;14.4;100.0;101870;;;;
2022/05/20 05:19:00;;;;;;;0.7;0.7;;;;;;;14.5;100.0;101860;;;;
2022/05/20 05:20:00;;;;;;;0.7;0.7;;;;;;;14.5;100.0;101860;;;;
2022/05/20 05:21:01;;;;;;;0.7;0.7;;;;;;;14.6;100.0;101860;;;;
2022/05/20 05:22:00;;;;;;;0.7;0.7;;;;;;;14.6;100.0;101860;;;;
2022/05/20 05:23:00;;;;;;;0.7;0.7;;;;;;;14.7;100.0;101860;;;;
2022/05/20 05:24:00;;;;;;;0.7;0.7;;;;;;;14.7;100.0;101860;;;;
2022/05/20 05:25:00;;;;;;;0.7;0.7;;;;;;;14.8;100.0;101860;;;;
2022/05/20 05:26:00;;;;;;;0.7;0.7;;;;;;;14.8;100.0;101860;;;;
2022/05/20 05:27:00;;;;;;;0.7;0.7;;;;;;;14.8;100.0;101860;;;;
2022/05/20 05:28:00;;;;;;;0.7;0.7;;;;;;;14.8;100.0;101860;;;;
2022/05/20 05:29:00;;;;;;;0.7;0.7;;;;;;;15.0;100.0;101860;;;;
2022/05/20 05:30:00;;;;;;;0.7;0.7;;;;;;;15.0;100.0;101860;;;;
2022/05/20 05:31:00;;;;;;;0.7;0.7;;;;;;;15.0;100.0;101860;;;;
2022/05/20 05:32:00;;;;;;;0.7;0.7;;;;;;;15.0;100.0;101860;;;;
2022/05/20 05:33:00;;;;;;;0.7;0.7;;;;;;;14.9;100.0;101860;;;;
2022/05/20 05:34:00;;;;;;;0.7;0.7;;;;;;;14.9;100.0;101860;;;;
2022/05/20 05:35:00;;;;;;;0.7;0.7;;;;;;;14.9;100.0;101860;;;;
2022/05/20 05:36:00;;;;;;;0.7;0.7;;;;;;;14.9;100.0;101860;;;;
2022/05/20 05:37:00;;;;;;;0.7;0.7;;;;;;;15.0;100.0;101860;;;;
2022/05/20 05:38:00;;;;;;;0.7;0.7;;;;;;;15.0;100.0;101860;;;;
2022/05/20 05:39:00;;;;;;;1.2;1.2;;;;;;;15.1;100.0;101850;;;;
2022/05/20 05:40:00;;;;;;;1.2;1.2;;;;;;;15.1;100.0;101850;;;;
2022/05/20 05:41:00;;;;;;;1.2;1.2;;;;;;;15.0;100.0;101850;;;;
2022/05/20 05:42:01;;;;;;;1.2;1.2;;;;;;;15.0;100.0;101850;;;;
2022/05/20 05:43:00;;;;;;;1.2;1.2;;;;;;;15.1;100.0;101850;;;;
2022/05/20 05:44:03;;;;;;;1.2;1.2;;;;;;;15.1;100.0;101850;;;;
2022/05/20 05:45:00;;;;;;;1.2;1.2;;;;;;;15.2;100.0;101850;;;;
2022/05/20 05:46:00;;;;;;;1.2;1.2;;;;;;;15.2;100.0;101850;;;;
2022/05/20 05:47:00;;;;;;;1.2;1.2;;;;;;;15.2;100.0;101850;;;;
2022/05/20 05:48:03;;;;;;;1.2;1.2;;;;;;;15.2;100.0;101850;;;;
2022/05/20 05:49:00;;;;;;;1.2;1.2;;;;;;;15.3;100.0;101840;;;;
2022/05/20 05:50:00;;;;;;;1.2;1.2;;;;;;;15.3;100.0;101840;;;;
2022/05/20 05:51:01;;;;;;;1.2;1.2;;;;;;;15.4;100.0;101830;;;;
2022/05/20 05:52:00;;;;;;;1.2;1.2;;;;;;;15.4;100.0;101830;;;;
2022/05/20 05:53:06;;;;;;;1.2;1.2;;;;;;;15.3;100.0;101840;;;;
2022/05/20 05:54:00;;;;;;;1.2;1.2;;;;;;;15.3;100.0;101840;;;;
2022/05/20 05:55:01;;;;;;;1.2;1.2;;;;;;;15.5;100.0;101830;;;;
2022/05/20 05:56:01;;;;;;;1.2;1.2;;;;;;;15.5;100.0;101830;;;;
2022/05/20 05:57:00;;;;;;;1.2;1.2;;;;;;;15.5;100.0;101830;;;;
2022/05/20 05:58:00;;;;;;;1.3;1.2;;;;;;;15.5;100.0;101830;;;;
2022/05/20 05:59:00;;;;;;;1.3;1.2;;;;;;;15.4;100.0;101840;;;;
2022/05/20 06:00:01;;;;;;;1.3;1.2;;;;;;;15.4;100.0;101840;;;;
2022/05/20 06:01:00;;;;;;;1.3;1.2;;;;;;;15.3;100.0;101830;;;;
2022/05/20 06:02:00;;;;;;;1.3;1.2;;;;;;;15.3;100.0;101830;;;;
2022/05/20 06:03:00;;;;;;;1.3;1.2;;;;;;;15.5;100.0;101830;;;;
2022/05/20 06:04:00;;;;;;;1.3;1.2;;;;;;;15.5;100.0;101830;;;;
2022/05/20 06:05:00;;;;;;;1.3;1.2;;;;;;;15.6;100.0;101830;;;;
2022/05/20 06:06:00;;;;;;;1.3;1.2;;;;;;;15.6;100.0;101830;;;;
2022/05/20 06:07:00;;;;;;;1.3;1.2;;;;;;;15.8;100.0;101830;;;;
2022/05/20 06:08:00;;;;;;;1.3;1.2;;;;;;;15.8;100.0;101830;;;;
2022/05/20 06:09:00;;;;;;;1.3;1.2;;;;;;;15.8;100.0;101820;;;;
2022/05/20 06:10:00;;;;;;;1.3;1.2;;;;;;;15.8;100.0;101820;;;;
2022/05/20 06:11:00;;;;;;;1.3;1.2;;;;;;;15.7;100.0;101810;;;;
2022/05/20 06:12:01;;;;;;;1.3;1.2;;;;;;;15.7;100.0;101810;;;;
2022/05/20 06:13:00;;;;;;;1.3;1.2;;;;;;;15.7;100.0;101810;;;;
2022/05/20 06:14:00;;;;;;;1.3;1.2;;;;;;;15.7;100.0;101810;;;;
2022/05/20 06:15:09;;;;;;;1.3;1.2;;;;;;;15.9;100.0;101810;;;;
2022/05/20 06:16:00;;;;;;;1.3;1.2;;;;;;;15.9;100.0;101810;;;;
2022/05/20 06:17:00;;;;;;;1.3;1.2;;;;;;;16.0;100.0;101800;;;;
2022/05/20 06:18:00;;;;;;;0.6;0.6;;;;;;;16.0;100.0;101800;;;;
2022/05/20 06:19:00;;;;;;;0.6;0.6;;;;;;;15.8;100.0;101800;;;;
2022/05/20 06:20:00;;;;;;;0.6;0.6;;;;;;;15.8;100.0;101800;;;;
2022/05/20 06:21:00;;;;;;;0.6;0.6;;;;;;;15.9;100.0;101800;;;;
2022/05/20 06:22:00;;;;;;;0.6;0.6;;;;;;;15.9;100.0;101800;;;;
2022/05/20 06:23:01;;;;;;;0.6;0.6;;;;;;;16.0;100.0;101810;;;;
2022/05/20 06:24:01;;;;;;;0.6;0.6;;;;;;;16.0;100.0;101810;;;;
2022/05/20 06:25:00;;;;;;;0.6;0.6;;;;;;;16.0;100.0;101820;;;;
2022/05/20 06:26:10;;;;;;;0.6;0.6;;;;;;;16.0;100.0;101820;;;;
2022/05/20 06:27:00;;;;;;;0.6;0.6;;;;;;;16.0;100.0;101820;;;;
2022/05/20 06:28:04;;;;;;;0.6;0.6;;;;;;;16.0;100.0;101820;;;;
2022/05/20 06:29:00;;;;;;;0.6;0.6;;;;;;;16.1;100.0;101820;;;;
2022/05/20 06:30:00;;;;;;;0.6;0.6;;;;;;;16.1;100.0;101820;;;;
2022/05/20 06:31:00;;;;;;;0.6;0.6;;;;;;;16.2;100.0;101810;;;;
2022/05/20 06:32:00;;;;;;;0.6;0.6;;;;;;;16.2;100.0;101810;;;;
2022/05/20 06:33:01;;;;;;;0.6;0.6;;;;;;;16.3;100.0;101810;;;;
2022/05/20 06:34:00;;;;;;;0.6;0.6;;;;;;;16.3;100.0;101810;;;;
2022/05/20 06:40:00;;;;;;;1.0;1.0;;;;;;;16.2;100.0;101820;;;;
2022/05/20 06:41:00;;;;;;;1.0;1.0;;;;;;;16.2;100.0;101810;;;;
2022/05/20 06:42:00;;;;;;;1.0;1.0;;;;;;;16.2;100.0;101810;;;;
2022/05/20 06:43:05;;;;;;;1.0;1.0;;;;;;;16.4;100.0;101810;;;;